Terminal Aerodrome Forecast
Issued by NWS Charleston, WV

Current Version | Previous Version | Graphics & Text | Print | Product List | Glossary On
Versions: 1 2 3 4 5 6 7 8 9 10 11 12 13 14 15 16 17 18 19 20 21 22 23 24 25 26
000
FTUS41 KRLX 012100 AAB
TAFPKB
TAF AMD
KPKB 012159Z 0122/0218 16006KT P6SM VCSH BKN090
     FM020100 00000KT P6SM SCT090
     FM020500 00000KT 5SM BR BKN080
     FM020700 00000KT 2SM BR BKN090
     FM021300 00000KT P6SM BKN040
     FM021500 00000KT P6SM VCTS BKN035CB
      AMD NOT SKED=

USA.gov is the U.S. government's official web portal to all federal, state and local government web resources and services.